createdAt,value
2022-12-09T00:01:40.372Z,16.799992
2022-12-09T00:06:42.190Z,16.51347
2022-12-09T00:11:43.684Z,16.551072
2022-12-09T00:16:45.391Z,16.374274
2022-12-09T00:21:47.355Z,16.172576
2022-12-09T00:26:48.839Z,15.5666
2022-12-09T00:31:50.429Z,16.210706
2022-12-09T00:36:52.068Z,16.127118
2022-12-09T00:41:53.589Z,16.357054
2022-12-09T00:46:55.477Z,16.224126
2022-12-09T00:51:57.543Z,16.057818
2022-12-09T00:56:59.171Z,16.716932
2022-12-09T01:02:01.016Z,15.72919
2022-12-09T01:07:02.916Z,15.532174
2022-12-09T01:12:04.647Z,15.681616
2022-12-09T01:17:06.317Z,15.768556
2022-12-09T01:22:08.395Z,15.2732
2022-12-09T01:27:10.095Z,15.831668
2022-12-09T01:32:11.829Z,15.240362
2022-12-09T01:37:13.721Z,15.065056
2022-12-09T01:42:15.161Z,15.249182
2022-12-09T01:47:16.974Z,15.156598
2022-12-09T01:52:19.076Z,15.409928
2022-12-09T01:57:20.746Z,15.412478
2022-12-09T02:02:22.399Z,15.114314
2022-12-09T02:07:24.027Z,15.531116
2022-12-09T02:12:25.540Z,15.15315
2022-12-09T02:17:27.203Z,15.390156
2022-12-09T02:22:29.354Z,15.207428
2022-12-09T02:27:31.147Z,15.001496
2022-12-09T02:32:32.818Z,15.162852
2022-12-09T02:37:34.427Z,15.337804
2022-12-09T02:42:36.145Z,15.341508
2022-12-09T02:47:38.012Z,15.640664
2022-12-09T02:52:40.552Z,14.829204
2022-12-09T02:57:42.392Z,15.3138
2022-12-09T03:02:44.158Z,15.50376
2022-12-09T03:07:45.741Z,15.618938
2022-12-09T03:12:47.375Z,14.759904
2022-12-09T03:17:49.369Z,14.675258
2022-12-09T03:22:51.969Z,14.802106
2022-12-09T03:27:53.590Z,14.659382
2022-12-09T03:32:55.765Z,14.757434
2022-12-09T03:37:57.633Z,14.876426
2022-12-09T03:42:59.559Z,15.081652
2022-12-09T03:48:01.432Z,14.790368
2022-12-09T03:53:03.196Z,14.539236
2022-12-09T03:58:05.056Z,15.011132
2022-12-09T04:03:06.800Z,15.118276
2022-12-09T04:08:08.633Z,14.5892
2022-12-09T04:13:10.527Z,15.016952
2022-12-09T04:18:12.337Z,15.486716
2022-12-09T04:23:14.133Z,15.446374
2022-12-09T04:28:15.888Z,15.294992
2022-12-09T04:33:17.584Z,15.024104
2022-12-09T04:38:19.164Z,15.243008
2022-12-09T04:43:21.109Z,14.987208
2022-12-09T04:48:22.883Z,15.10354
2022-12-09T04:53:24.970Z,15.089238
2022-12-09T04:58:26.767Z,15.720548
2022-12-09T05:03:28.727Z,15.565624
2022-12-09T05:08:31.837Z,16.54137
2022-12-09T05:13:34.264Z,15.336312
2022-12-09T05:18:36.124Z,15.871658
2022-12-09T05:23:38.477Z,16.678178
2022-12-09T05:28:40.317Z,16.566514
2022-12-09T05:33:42.301Z,16.726472
2022-12-09T05:38:44.460Z,16.228618
2022-12-09T05:43:46.512Z,16.534476
2022-12-09T05:48:48.396Z,16.232418
2022-12-09T05:53:50.481Z,15.741906
2022-12-09T05:58:52.196Z,16.572526
2022-12-09T06:03:54.222Z,17.151932
2022-12-09T06:08:56.374Z,17.180102
2022-12-09T06:13:58.357Z,16.772364
2022-12-09T06:19:00.104Z,16.52301
2022-12-09T06:24:02.036Z,16.84891
2022-12-09T06:29:04.286Z,17.876302
2022-12-09T06:34:06.147Z,17.889546
2022-12-09T06:39:10.044Z,17.811942
2022-12-09T06:44:15.835Z,17.559304
2022-12-09T06:49:21.594Z,17.89819
2022-12-09T06:54:23.689Z,17.787748
2022-12-09T06:59:25.449Z,18.22656
2022-12-09T07:04:27.479Z,18.296918
2022-12-09T07:09:29.805Z,18.553166
2022-12-09T07:14:31.977Z,19.195278
2022-12-09T07:19:33.928Z,18.718864
2022-12-09T07:24:36.463Z,19.763124
2022-12-09T07:29:38.408Z,19.783872
2022-12-09T07:34:40.574Z,20.68728
2022-12-09T07:39:42.526Z,21.964558
2022-12-09T07:44:44.276Z,20.982934
2022-12-09T07:49:46.053Z,20.438536
2022-12-09T07:54:47.852Z,20.413636
2022-12-09T07:59:49.940Z,20.444968
2022-12-09T08:04:51.965Z,22.82563
2022-12-09T08:09:54.136Z,23.617904
2022-12-09T08:14:56.039Z,22.059002
2022-12-09T08:19:58.143Z,22.084608
2022-12-09T08:25:00.550Z,22.17969
2022-12-09T08:30:02.633Z,23.101486
2022-12-09T08:35:04.649Z,21.511198
2022-12-09T08:40:06.694Z,23.037492
2022-12-09T08:45:09.314Z,22.73029
2022-12-09T08:50:17.807Z,21.742098
2022-12-09T08:55:20.472Z,21.735232
2022-12-09T09:00:22.459Z,23.343364
2022-12-09T09:05:24.148Z,24.860608
2022-12-09T09:10:26.686Z,24.066298
2022-12-09T09:15:28.421Z,24.10025
2022-12-09T09:20:30.213Z,24.107998
2022-12-09T09:25:32.446Z,26.012356
2022-12-09T09:30:34.569Z,26.213146
2022-12-09T09:35:36.626Z,24.459776
2022-12-09T09:40:38.705Z,23.134094
2022-12-09T09:45:40.500Z,26.449298
2022-12-09T09:50:42.768Z,25.743068
2022-12-09T09:55:44.931Z,26.351786
2022-12-09T10:00:47.772Z,25.797834
2022-12-09T10:05:50.281Z,25.045698
2022-12-09T10:10:52.662Z,25.2024
2022-12-09T10:15:54.917Z,26.91471
2022-12-09T10:20:57.232Z,25.602744
2022-12-09T10:25:59.543Z,25.748156
2022-12-09T10:31:01.763Z,27.714556
2022-12-09T10:36:03.577Z,25.102406
2022-12-09T10:41:05.200Z,24.745118
2022-12-09T10:46:18.784Z,24.620644
2022-12-09T10:51:21.452Z,24.262434
2022-12-09T10:56:23.490Z,24.399066
2022-12-09T11:01:25.467Z,23.915988
2022-12-09T11:06:27.365Z,22.79537
2022-12-09T11:11:29.345Z,23.887546
2022-12-09T11:16:31.294Z,22.961964
2022-12-09T11:21:33.435Z,22.140162
2022-12-09T11:26:35.844Z,19.136318
2022-12-09T11:31:37.575Z,18.416086
2022-12-09T11:36:42.368Z,18.133242
2022-12-09T11:41:45.508Z,16.714098
2022-12-09T11:46:47.133Z,17.014134
2022-12-09T11:51:48.673Z,17.910878
2022-12-09T11:56:57.938Z,17.596634
2022-12-09T12:01:59.667Z,17.632824
2022-12-09T12:07:01.178Z,18.306444
2022-12-09T12:12:02.764Z,18.601976
2022-12-09T12:17:04.435Z,18.722826
2022-12-09T12:22:05.940Z,18.103606
2022-12-09T12:27:07.657Z,17.324686
2022-12-09T12:32:09.712Z,18.421012
2022-12-09T12:37:11.300Z,18.035636
2022-12-09T12:42:12.836Z,18.291178
2022-12-09T12:47:14.345Z,16.851556
2022-12-09T12:52:39.431Z,16.991906
2022-12-09T12:57:55.935Z,17.787218
2022-12-09T13:03:00.832Z,17.128728
2022-12-09T13:08:04.710Z,18.30335
2022-12-09T13:13:06.231Z,17.333248
2022-12-09T13:18:07.751Z,17.375518
2022-12-09T13:23:09.314Z,16.684366
2022-12-09T13:28:11.217Z,17.01891
2022-12-09T13:33:12.783Z,17.07099
2022-12-09T13:38:14.216Z,17.156966
2022-12-09T13:43:15.783Z,17.31303
2022-12-09T13:48:17.710Z,16.46766
2022-12-09T13:53:19.257Z,16.629558
2022-12-09T13:58:21.009Z,17.257598
2022-12-09T14:03:22.717Z,17.534322
2022-12-09T14:08:24.437Z,17.618996
2022-12-09T14:13:26.020Z,18.713558
2022-12-09T14:18:27.751Z,17.750512
2022-12-09T14:23:29.258Z,17.6219
2022-12-09T14:28:30.996Z,17.441126
2022-12-09T14:33:32.654Z,18.072084
2022-12-09T14:38:34.216Z,16.829844
2022-12-09T14:43:35.922Z,15.974772
2022-12-09T14:48:37.884Z,16.982366
2022-12-09T14:53:39.343Z,17.411734
2022-12-09T14:58:40.994Z,17.430976
2022-12-09T15:03:45.751Z,17.502474
2022-12-09T15:08:47.509Z,18.3384
2022-12-09T15:13:49.031Z,17.550578
2022-12-09T15:18:50.503Z,17.850778
2022-12-09T15:23:51.985Z,18.56394
2022-12-09T15:28:53.676Z,19.1326
2022-12-09T15:33:55.159Z,19.375088
2022-12-09T15:38:57.332Z,18.92181
2022-12-09T15:43:58.828Z,18.61355
2022-12-09T15:49:00.552Z,18.198498
2022-12-09T15:54:02.123Z,18.239722
2022-12-09T15:59:03.889Z,18.86205
2022-12-09T16:04:05.305Z,18.11898
2022-12-09T16:09:06.801Z,18.17547
2022-12-09T16:14:08.272Z,17.551568
2022-12-09T16:19:09.845Z,17.971818
2022-12-09T16:24:11.412Z,17.68166
2022-12-09T16:29:13.259Z,17.750878
2022-12-09T16:34:14.828Z,17.939414
2022-12-09T16:39:16.264Z,18.209448
2022-12-09T16:44:18.257Z,18.206368
2022-12-09T16:49:19.798Z,17.843124
2022-12-09T16:54:21.270Z,18.213872
2022-12-09T16:59:23.115Z,17.682908
2022-12-09T17:04:24.751Z,18.225596
2022-12-09T17:09:26.235Z,18.076684
2022-12-09T17:14:28.747Z,18.195404
2022-12-09T17:19:30.190Z,17.922642
2022-12-09T17:24:31.805Z,17.80304
2022-12-09T17:29:33.513Z,17.888216
2022-12-09T17:34:36.659Z,17.645036
2022-12-09T17:39:38.428Z,17.818048
2022-12-09T17:44:40.150Z,17.229006
2022-12-09T17:49:41.582Z,17.523032
2022-12-09T17:54:43.133Z,17.776118
2022-12-09T17:59:44.823Z,17.578898
2022-12-09T18:04:46.298Z,17.489678
2022-12-09T18:09:54.183Z,17.641236
2022-12-09T18:14:56.110Z,17.624722
2022-12-09T18:19:57.581Z,17.490112
2022-12-09T18:24:59.046Z,17.392574
2022-12-09T18:30:00.692Z,17.851144
2022-12-09T18:35:02.263Z,17.641942
2022-12-09T18:40:03.908Z,17.91849
2022-12-09T18:45:05.546Z,17.675228
2022-12-09T18:50:07.567Z,17.882734
2022-12-09T18:55:09.342Z,16.786598
2022-12-09T19:00:11.016Z,17.601776
2022-12-09T19:05:12.471Z,17.528514
2022-12-09T19:10:13.951Z,17.658714
2022-12-09T19:15:16.477Z,17.37359
2022-12-09T19:20:17.956Z,17.724038
2022-12-09T19:25:19.584Z,17.203672
2022-12-09T19:30:21.191Z,17.453298
2022-12-09T19:35:22.647Z,16.96516
2022-12-09T19:40:24.095Z,17.170834
2022-12-09T19:45:25.717Z,16.836018
2022-12-09T19:50:27.186Z,17.179396
2022-12-09T19:55:29.292Z,16.895602
2022-12-09T20:00:31.222Z,17.26422
2022-12-09T20:05:32.987Z,16.873538
2022-12-09T20:10:34.461Z,17.022356
2022-12-09T20:15:36.058Z,16.836018
2022-12-09T20:20:37.566Z,16.674486
2022-12-09T20:25:39.097Z,16.881924
2022-12-09T20:30:40.811Z,17.241708
2022-12-09T20:35:42.298Z,16.69921
2022-12-09T20:40:43.815Z,16.554436
2022-12-09T20:45:46.419Z,16.851908
2022-12-09T20:50:48.672Z,16.428212
2022-12-09T20:55:50.138Z,16.00187
2022-12-09T21:00:51.923Z,16.79763
2022-12-09T21:05:53.424Z,17.551718
2022-12-09T21:10:54.944Z,16.927382
2022-12-09T21:15:56.526Z,16.774752
2022-12-09T21:20:58.130Z,16.621972
2022-12-09T21:25:59.576Z,16.831608
2022-12-09T21:31:01.454Z,16.547814
2022-12-09T21:36:02.983Z,16.325816
2022-12-09T21:41:04.444Z,16.338178
2022-12-09T21:46:06.600Z,16.334908
2022-12-09T21:51:09.495Z,16.253002
2022-12-09T21:56:12.186Z,16.363594
2022-12-09T22:01:13.951Z,16.959678
2022-12-09T22:06:15.506Z,15.649224
2022-12-09T22:11:16.999Z,16.533784
2022-12-09T22:16:18.617Z,16.293684
2022-12-09T22:21:25.252Z,16.540664
2022-12-09T22:26:27.393Z,16.100372
2022-12-09T22:31:30.661Z,16.370474
2022-12-09T22:36:32.276Z,16.17073
2022-12-09T22:41:33.753Z,15.944308
2022-12-09T22:46:35.452Z,16.05315
2022-12-09T22:51:36.999Z,15.774648
2022-12-09T22:56:38.515Z,15.343014
2022-12-09T23:01:40.299Z,16.444008
2022-12-09T23:06:41.847Z,15.460418
2022-12-09T23:11:43.288Z,15.998424
2022-12-09T23:16:44.788Z,15.803958
2022-12-09T23:21:46.905Z,15.753466
2022-12-09T23:26:48.355Z,15.354494
2022-12-09T23:31:49.989Z,15.862566
2022-12-09T23:36:51.516Z,15.815262
2022-12-09T23:41:52.908Z,15.781718
2022-12-09T23:46:54.661Z,15.738024
2022-12-09T23:51:56.154Z,15.988532
2022-12-09T23:56:57.574Z,15.896734
